Main page
METAR-TAF:

METAR-TAF

Airports :

Palma de Mallorca, Spain

Palma de Mallorca Airport

latitude: 39-33N, longitude: 002-44E, elevation: 4 m

Current weather observation

The report was made 34 minutes ago, at 16:30 UTC
Wind 9 kt from the Southwest, varying between South and West
Temperature 28°C
Humidity 62%
Pressure 1020 hPa
Visibility 10 km or more
no clouds below 1500 m and no cumulonimbus

METAR: LEPA 231630Z 22009KT 190V270 CAVOK 28/20 Q1020 NOSIG

Time: 19:04 (17:04 UTC)

Forecast

The report was made 6 hours and 4 minutes ago, at 11:00 UTC
Forecast valid from 23 at 12 UTC to 24 at 12 UTC
Wind 10 kt from the Southwest
Visibility 10 km or more
Few clouds at a height of 2000 ft
Becoming
from 23 at 18 UTC to 23 at 20 UTC
Wind 3 kt from variable directions
Becoming
from 24 at 08 UTC to 24 at 10 UTC
Wind 10 kt from the Southwest

TAF: LEPA 231100Z 2312/2412 22010KT 9999 FEW020 TX31/2313Z TN19/2406Z BECMG 2318/2320 VRB03KT BECMG 2408/2410 22010KT

Weather observations and forecasts of more than 4000 airports (METAR and TAF reports).

The available stations are represented by yellow and red dots on the map.

Hover mouse over dot to see the name of the station.

Then click to see weather observations and forecasts.

To change the map : click on the green buttons with a black cross to zoom in, on the green button with a dash to zoom out, or on the green arrows for adjacent maps.


METAR-TAF: